sensor_id;sensor_type;location;lat;lon;timestamp;P1;durP1;ratioP1;P2;durP2;ratioP2
31442;SDS011;18065;55.876;9.830;2022-12-18T00:00:23;7.93;;;3.92;;
31442;SDS011;18065;55.876;9.830;2022-12-18T00:02:51;6.15;;;3.72;;
31442;SDS011;18065;55.876;9.830;2022-12-18T00:05:20;5.05;;;3.97;;
31442;SDS011;18065;55.876;9.830;2022-12-18T00:07:49;5.72;;;3.70;;
31442;SDS011;18065;55.876;9.830;2022-12-18T00:10:20;5.38;;;3.75;;
31442;SDS011;18065;55.876;9.830;2022-12-18T00:12:52;6.03;;;3.80;;
31442;SDS011;18065;55.876;9.830;2022-12-18T00:15:21;5.68;;;4.00;;
31442;SDS011;18065;55.876;9.830;2022-12-18T00:17:50;7.55;;;4.20;;
31442;SDS011;18065;55.876;9.830;2022-12-18T00:20:19;5.97;;;3.63;;
31442;SDS011;18065;55.876;9.830;2022-12-18T00:22:50;7.13;;;4.47;;
31442;SDS011;18065;55.876;9.830;2022-12-18T00:25:22;5.90;;;4.25;;
31442;SDS011;18065;55.876;9.830;2022-12-18T00:27:51;8.35;;;5.50;;
31442;SDS011;18065;55.876;9.830;2022-12-18T00:30:20;8.00;;;5.07;;
31442;SDS011;18065;55.876;9.830;2022-12-18T00:32:49;6.65;;;4.43;;
31442;SDS011;18065;55.876;9.830;2022-12-18T00:35:18;7.35;;;4.45;;
31442;SDS011;18065;55.876;9.830;2022-12-18T00:37:47;6.55;;;4.50;;
31442;SDS011;18065;55.876;9.830;2022-12-18T00:40:15;5.88;;;4.18;;
31442;SDS011;18065;55.876;9.830;2022-12-18T00:42:47;6.63;;;4.63;;
31442;SDS011;18065;55.876;9.830;2022-12-18T00:45:22;9.95;;;5.13;;
31442;SDS011;18065;55.876;9.830;2022-12-18T00:47:52;9.13;;;4.47;;
31442;SDS011;18065;55.876;9.830;2022-12-18T00:50:21;7.53;;;4.25;;
31442;SDS011;18065;55.876;9.830;2022-12-18T00:52:51;8.02;;;4.55;;
31442;SDS011;18065;55.876;9.830;2022-12-18T00:55:19;6.50;;;3.88;;
31442;SDS011;18065;55.876;9.830;2022-12-18T00:57:51;6.72;;;4.82;;
31442;SDS011;18065;55.876;9.830;2022-12-18T01:00:20;6.80;;;4.60;;
31442;SDS011;18065;55.876;9.830;2022-12-18T01:02:48;7.82;;;4.85;;
31442;SDS011;18065;55.876;9.830;2022-12-18T01:05:17;6.20;;;4.07;;
31442;SDS011;18065;55.876;9.830;2022-12-18T01:07:46;7.50;;;4.28;;
31442;SDS011;18065;55.876;9.830;2022-12-18T01:10:15;5.72;;;4.25;;
31442;SDS011;18065;55.876;9.830;2022-12-18T01:12:44;6.53;;;4.20;;
31442;SDS011;18065;55.876;9.830;2022-12-18T01:15:16;9.07;;;4.40;;
31442;SDS011;18065;55.876;9.830;2022-12-18T01:17:45;7.43;;;4.60;;
31442;SDS011;18065;55.876;9.830;2022-12-18T01:20:14;6.57;;;4.50;;
31442;SDS011;18065;55.876;9.830;2022-12-18T01:22:43;7.05;;;4.65;;
31442;SDS011;18065;55.876;9.830;2022-12-18T01:25:11;6.30;;;3.78;;
31442;SDS011;18065;55.876;9.830;2022-12-18T01:27:41;6.35;;;4.03;;
31442;SDS011;18065;55.876;9.830;2022-12-18T01:30:10;6.10;;;4.18;;
31442;SDS011;18065;55.876;9.830;2022-12-18T01:32:42;5.95;;;4.00;;
31442;SDS011;18065;55.876;9.830;2022-12-18T01:35:10;6.05;;;4.63;;
31442;SDS011;18065;55.876;9.830;2022-12-18T01:37:39;6.40;;;4.20;;
31442;SDS011;18065;55.876;9.830;2022-12-18T01:40:08;7.22;;;4.05;;
31442;SDS011;18065;55.876;9.830;2022-12-18T01:42:37;5.38;;;3.83;;
31442;SDS011;18065;55.876;9.830;2022-12-18T01:45:08;7.22;;;4.22;;
31442;SDS011;18065;55.876;9.830;2022-12-18T01:47:55;6.63;;;4.15;;
31442;SDS011;18065;55.876;9.830;2022-12-18T01:50:27;5.68;;;4.20;;
31442;SDS011;18065;55.876;9.830;2022-12-18T01:53:00;5.82;;;4.25;;
31442;SDS011;18065;55.876;9.830;2022-12-18T01:55:32;8.07;;;4.93;;
31442;SDS011;18065;55.876;9.830;2022-12-18T01:58:06;6.72;;;4.50;;
31442;SDS011;18065;55.876;9.830;2022-12-18T02:00:35;5.78;;;4.18;;
31442;SDS011;18065;55.876;9.830;2022-12-18T02:03:07;6.63;;;4.63;;
31442;SDS011;18065;55.876;9.830;2022-12-18T02:05:38;6.32;;;4.70;;
31442;SDS011;18065;55.876;9.830;2022-12-18T02:08:13;6.88;;;4.55;;
31442;SDS011;18065;55.876;9.830;2022-12-18T02:10:53;9.70;;;4.00;;
31442;SDS011;18065;55.876;9.830;2022-12-18T02:13:29;7.00;;;4.05;;
31442;SDS011;18065;55.876;9.830;2022-12-18T02:16:05;7.63;;;4.80;;
31442;SDS011;18065;55.876;9.830;2022-12-18T02:18:48;11.43;;;5.07;;
31442;SDS011;18065;55.876;9.830;2022-12-18T02:21:25;8.77;;;4.97;;
31442;SDS011;18065;55.876;9.830;2022-12-18T02:24:04;8.00;;;4.72;;
31442;SDS011;18065;55.876;9.830;2022-12-18T02:26:45;7.03;;;4.53;;
31442;SDS011;18065;55.876;9.830;2022-12-18T02:29:18;9.32;;;5.45;;
31442;SDS011;18065;55.876;9.830;2022-12-18T02:31:53;7.72;;;4.88;;
31442;SDS011;18065;55.876;9.830;2022-12-18T02:34:29;8.95;;;5.07;;
31442;SDS011;18065;55.876;9.830;2022-12-18T02:37:00;7.90;;;5.35;;
31442;SDS011;18065;55.876;9.830;2022-12-18T02:39:32;7.78;;;5.13;;
31442;SDS011;18065;55.876;9.830;2022-12-18T02:42:05;7.65;;;4.93;;
31442;SDS011;18065;55.876;9.830;2022-12-18T02:44:35;8.38;;;5.07;;
31442;SDS011;18065;55.876;9.830;2022-12-18T02:47:10;8.38;;;5.32;;
31442;SDS011;18065;55.876;9.830;2022-12-18T02:49:44;9.52;;;5.70;;
31442;SDS011;18065;55.876;9.830;2022-12-18T02:52:24;9.43;;;5.82;;
31442;SDS011;18065;55.876;9.830;2022-12-18T02:55:00;9.05;;;4.93;;
31442;SDS011;18065;55.876;9.830;2022-12-18T02:57:44;8.23;;;5.22;;
31442;SDS011;18065;55.876;9.830;2022-12-18T03:00:18;9.88;;;5.22;;
31442;SDS011;18065;55.876;9.830;2022-12-18T03:02:52;11.63;;;5.38;;
31442;SDS011;18065;55.876;9.830;2022-12-18T03:05:28;7.70;;;5.32;;
31442;SDS011;18065;55.876;9.830;2022-12-18T03:08:02;9.43;;;5.53;;
31442;SDS011;18065;55.876;9.830;2022-12-18T03:10:35;8.95;;;4.95;;
31442;SDS011;18065;55.876;9.830;2022-12-18T03:13:10;9.68;;;5.35;;
31442;SDS011;18065;55.876;9.830;2022-12-18T03:15:45;10.05;;;5.10;;
31442;SDS011;18065;55.876;9.830;2022-12-18T03:18:18;9.43;;;5.22;;
31442;SDS011;18065;55.876;9.830;2022-12-18T03:20:51;9.45;;;5.78;;
31442;SDS011;18065;55.876;9.830;2022-12-18T03:23:24;8.18;;;5.07;;
31442;SDS011;18065;55.876;9.830;2022-12-18T03:25:58;7.78;;;5.28;;
31442;SDS011;18065;55.876;9.830;2022-12-18T03:28:35;8.00;;;5.45;;
31442;SDS011;18065;55.876;9.830;2022-12-18T03:31:08;7.47;;;5.30;;
31442;SDS011;18065;55.876;9.830;2022-12-18T03:33:39;8.40;;;5.28;;
31442;SDS011;18065;55.876;9.830;2022-12-18T03:36:13;9.13;;;5.80;;
31442;SDS011;18065;55.876;9.830;2022-12-18T03:38:42;9.55;;;5.47;;
31442;SDS011;18065;55.876;9.830;2022-12-18T03:41:13;7.00;;;5.18;;
31442;SDS011;18065;55.876;9.830;2022-12-18T03:43:50;6.72;;;4.93;;
31442;SDS011;18065;55.876;9.830;2022-12-18T03:46:27;7.80;;;5.20;;
31442;SDS011;18065;55.876;9.830;2022-12-18T03:48:59;6.80;;;4.65;;
31442;SDS011;18065;55.876;9.830;2022-12-18T03:51:33;7.93;;;5.32;;
31442;SDS011;18065;55.876;9.830;2022-12-18T03:54:07;8.70;;;4.95;;
31442;SDS011;18065;55.876;9.830;2022-12-18T03:56:39;7.70;;;5.15;;
31442;SDS011;18065;55.876;9.830;2022-12-18T03:59:13;8.15;;;5.90;;
31442;SDS011;18065;55.876;9.830;2022-12-18T04:01:45;7.40;;;5.70;;
31442;SDS011;18065;55.876;9.830;2022-12-18T04:04:17;8.45;;;4.93;;
31442;SDS011;18065;55.876;9.830;2022-12-18T04:06:47;8.02;;;5.55;;
31442;SDS011;18065;55.876;9.830;2022-12-18T04:09:18;9.00;;;5.13;;
31442;SDS011;18065;55.876;9.830;2022-12-18T04:11:48;9.68;;;5.53;;
31442;SDS011;18065;55.876;9.830;2022-12-18T04:14:22;9.23;;;5.32;;
31442;SDS011;18065;55.876;9.830;2022-12-18T04:16:51;8.32;;;5.35;;
31442;SDS011;18065;55.876;9.830;2022-12-18T04:19:20;9.50;;;5.38;;
31442;SDS011;18065;55.876;9.830;2022-12-18T04:21:48;10.18;;;4.72;;
31442;SDS011;18065;55.876;9.830;2022-12-18T04:24:17;8.88;;;5.88;;
31442;SDS011;18065;55.876;9.830;2022-12-18T04:26:46;7.47;;;4.97;;
31442;SDS011;18065;55.876;9.830;2022-12-18T04:29:17;7.90;;;5.25;;
31442;SDS011;18065;55.876;9.830;2022-12-18T04:31:49;7.47;;;5.10;;
31442;SDS011;18065;55.876;9.830;2022-12-18T04:34:17;6.95;;;5.22;;
31442;SDS011;18065;55.876;9.830;2022-12-18T04:36:46;8.07;;;5.32;;
31442;SDS011;18065;55.876;9.830;2022-12-18T04:39:18;9.90;;;5.10;;
31442;SDS011;18065;55.876;9.830;2022-12-18T04:41:47;6.88;;;5.05;;
31442;SDS011;18065;55.876;9.830;2022-12-18T04:44:16;10.82;;;5.25;;
31442;SDS011;18065;55.876;9.830;2022-12-18T04:46:45;8.05;;;5.20;;
31442;SDS011;18065;55.876;9.830;2022-12-18T04:49:16;6.70;;;5.00;;
31442;SDS011;18065;55.876;9.830;2022-12-18T04:51:45;9.52;;;4.72;;
31442;SDS011;18065;55.876;9.830;2022-12-18T04:54:14;8.55;;;5.22;;
31442;SDS011;18065;55.876;9.830;2022-12-18T04:56:45;7.88;;;5.20;;
31442;SDS011;18065;55.876;9.830;2022-12-18T04:59:14;7.25;;;5.00;;
31442;SDS011;18065;55.876;9.830;2022-12-18T05:01:43;8.18;;;5.10;;
31442;SDS011;18065;55.876;9.830;2022-12-18T05:04:11;8.52;;;5.72;;
31442;SDS011;18065;55.876;9.830;2022-12-18T05:06:43;8.60;;;5.70;;
31442;SDS011;18065;55.876;9.830;2022-12-18T05:09:12;8.23;;;5.10;;
31442;SDS011;18065;55.876;9.830;2022-12-18T05:11:41;7.55;;;5.70;;
31442;SDS011;18065;55.876;9.830;2022-12-18T05:14:10;7.95;;;5.30;;
31442;SDS011;18065;55.876;9.830;2022-12-18T05:16:38;9.85;;;5.05;;
31442;SDS011;18065;55.876;9.830;2022-12-18T05:19:07;6.95;;;5.30;;
31442;SDS011;18065;55.876;9.830;2022-12-18T05:21:36;7.78;;;5.20;;
31442;SDS011;18065;55.876;9.830;2022-12-18T05:24:07;8.45;;;5.22;;
31442;SDS011;18065;55.876;9.830;2022-12-18T05:26:36;8.88;;;5.63;;
31442;SDS011;18065;55.876;9.830;2022-12-18T05:29:05;6.35;;;4.55;;
31442;SDS011;18065;55.876;9.830;2022-12-18T05:31:37;8.23;;;5.63;;
31442;SDS011;18065;55.876;9.830;2022-12-18T05:34:06;7.25;;;4.93;;
31442;SDS011;18065;55.876;9.830;2022-12-18T05:36:35;8.82;;;5.35;;
31442;SDS011;18065;55.876;9.830;2022-12-18T05:39:07;7.32;;;5.72;;
31442;SDS011;18065;55.876;9.830;2022-12-18T05:41:35;7.53;;;5.30;;
31442;SDS011;18065;55.876;9.830;2022-12-18T05:44:04;9.25;;;5.03;;
31442;SDS011;18065;55.876;9.830;2022-12-18T05:46:33;7.22;;;5.20;;
31442;SDS011;18065;55.876;9.830;2022-12-18T05:49:02;9.15;;;4.85;;
31442;SDS011;18065;55.876;9.830;2022-12-18T05:51:31;9.68;;;5.30;;
31442;SDS011;18065;55.876;9.830;2022-12-18T05:53:59;7.40;;;5.13;;
31442;SDS011;18065;55.876;9.830;2022-12-18T05:56:31;8.48;;;5.53;;
31442;SDS011;18065;55.876;9.830;2022-12-18T05:58:59;9.85;;;6.35;;
31442;SDS011;18065;55.876;9.830;2022-12-18T06:01:28;9.60;;;6.20;;
31442;SDS011;18065;55.876;9.830;2022-12-18T06:03:57;8.55;;;6.00;;
31442;SDS011;18065;55.876;9.830;2022-12-18T06:06:26;11.65;;;5.97;;
31442;SDS011;18065;55.876;9.830;2022-12-18T06:08:56;11.60;;;6.25;;
31442;SDS011;18065;55.876;9.830;2022-12-18T06:11:26;8.48;;;5.85;;
31442;SDS011;18065;55.876;9.830;2022-12-18T06:13:57;8.85;;;5.68;;
31442;SDS011;18065;55.876;9.830;2022-12-18T06:16:26;12.43;;;6.68;;
31442;SDS011;18065;55.876;9.830;2022-12-18T06:18:56;8.95;;;6.32;;
31442;SDS011;18065;55.876;9.830;2022-12-18T06:21:25;9.88;;;6.32;;
31442;SDS011;18065;55.876;9.830;2022-12-18T06:23:54;9.98;;;6.32;;
31442;SDS011;18065;55.876;9.830;2022-12-18T06:26:23;8.90;;;6.32;;
31442;SDS011;18065;55.876;9.830;2022-12-18T06:28:52;8.75;;;6.03;;
31442;SDS011;18065;55.876;9.830;2022-12-18T06:31:24;10.02;;;6.10;;
31442;SDS011;18065;55.876;9.830;2022-12-18T06:33:53;12.00;;;6.82;;
31442;SDS011;18065;55.876;9.830;2022-12-18T06:36:22;9.40;;;6.10;;
31442;SDS011;18065;55.876;9.830;2022-12-18T06:38:50;10.35;;;6.15;;
31442;SDS011;18065;55.876;9.830;2022-12-18T06:41:20;9.35;;;6.30;;
31442;SDS011;18065;55.876;9.830;2022-12-18T06:43:49;10.73;;;6.40;;
31442;SDS011;18065;55.876;9.830;2022-12-18T06:46:18;11.95;;;7.20;;
31442;SDS011;18065;55.876;9.830;2022-12-18T06:48:50;12.43;;;6.32;;
31442;SDS011;18065;55.876;9.830;2022-12-18T06:51:19;9.63;;;6.28;;
31442;SDS011;18065;55.876;9.830;2022-12-18T06:53:49;11.88;;;6.55;;
31442;SDS011;18065;55.876;9.830;2022-12-18T06:56:18;10.50;;;6.10;;
31442;SDS011;18065;55.876;9.830;2022-12-18T06:58:46;12.25;;;6.50;;
31442;SDS011;18065;55.876;9.830;2022-12-18T07:01:15;13.98;;;7.05;;
31442;SDS011;18065;55.876;9.830;2022-12-18T07:03:44;13.82;;;6.55;;
31442;SDS011;18065;55.876;9.830;2022-12-18T07:06:17;12.70;;;6.13;;
31442;SDS011;18065;55.876;9.830;2022-12-18T07:08:47;12.75;;;6.30;;
31442;SDS011;18065;55.876;9.830;2022-12-18T07:11:17;14.55;;;6.40;;
31442;SDS011;18065;55.876;9.830;2022-12-18T07:13:46;11.15;;;6.30;;
31442;SDS011;18065;55.876;9.830;2022-12-18T07:16:15;9.70;;;6.15;;
31442;SDS011;18065;55.876;9.830;2022-12-18T07:18:45;10.18;;;6.47;;
31442;SDS011;18065;55.876;9.830;2022-12-18T07:21:17;11.43;;;6.45;;
31442;SDS011;18065;55.876;9.830;2022-12-18T07:23:47;9.30;;;6.07;;
31442;SDS011;18065;55.876;9.830;2022-12-18T07:26:17;9.70;;;6.43;;
31442;SDS011;18065;55.876;9.830;2022-12-18T07:28:47;9.05;;;6.15;;
31442;SDS011;18065;55.876;9.830;2022-12-18T07:31:17;11.95;;;5.95;;
31442;SDS011;18065;55.876;9.830;2022-12-18T07:33:48;12.30;;;6.63;;
31442;SDS011;18065;55.876;9.830;2022-12-18T07:36:20;11.88;;;6.60;;
31442;SDS011;18065;55.876;9.830;2022-12-18T07:38:49;9.63;;;5.65;;
31442;SDS011;18065;55.876;9.830;2022-12-18T07:41:19;8.57;;;6.10;;
31442;SDS011;18065;55.876;9.830;2022-12-18T07:43:48;11.45;;;5.88;;
31442;SDS011;18065;55.876;9.830;2022-12-18T07:46:17;12.20;;;7.28;;
31442;SDS011;18065;55.876;9.830;2022-12-18T07:48:49;13.35;;;8.13;;
31442;SDS011;18065;55.876;9.830;2022-12-18T07:51:20;13.63;;;7.72;;
31442;SDS011;18065;55.876;9.830;2022-12-18T07:53:50;17.67;;;8.60;;
31442;SDS011;18065;55.876;9.830;2022-12-18T07:56:20;20.95;;;8.07;;
31442;SDS011;18065;55.876;9.830;2022-12-18T07:58:50;19.35;;;9.55;;
31442;SDS011;18065;55.876;9.830;2022-12-18T08:01:19;16.20;;;9.27;;
31442;SDS011;18065;55.876;9.830;2022-12-18T08:03:47;18.73;;;9.68;;
31442;SDS011;18065;55.876;9.830;2022-12-18T08:06:16;16.25;;;9.00;;
31442;SDS011;18065;55.876;9.830;2022-12-18T08:08:48;21.92;;;9.55;;
31442;SDS011;18065;55.876;9.830;2022-12-18T08:11:18;19.58;;;9.13;;
31442;SDS011;18065;55.876;9.830;2022-12-18T08:13:47;21.00;;;10.20;;
31442;SDS011;18065;55.876;9.830;2022-12-18T08:16:16;21.10;;;9.73;;
31442;SDS011;18065;55.876;9.830;2022-12-18T08:18:45;18.75;;;10.27;;
31442;SDS011;18065;55.876;9.830;2022-12-18T08:21:15;20.10;;;10.23;;
31442;SDS011;18065;55.876;9.830;2022-12-18T08:23:49;24.75;;;11.10;;
31442;SDS011;18065;55.876;9.830;2022-12-18T08:26:18;22.52;;;11.23;;
31442;SDS011;18065;55.876;9.830;2022-12-18T08:28:49;21.05;;;10.68;;
31442;SDS011;18065;55.876;9.830;2022-12-18T08:31:18;18.50;;;10.55;;
31442;SDS011;18065;55.876;9.830;2022-12-18T08:33:48;19.58;;;10.95;;
31442;SDS011;18065;55.876;9.830;2022-12-18T08:36:17;20.05;;;10.40;;
31442;SDS011;18065;55.876;9.830;2022-12-18T08:38:49;17.05;;;10.27;;
31442;SDS011;18065;55.876;9.830;2022-12-18T08:41:19;22.58;;;10.90;;
31442;SDS011;18065;55.876;9.830;2022-12-18T08:43:48;18.90;;;11.20;;
31442;SDS011;18065;55.876;9.830;2022-12-18T08:46:32;19.55;;;11.02;;
31442;SDS011;18065;55.876;9.830;2022-12-18T08:49:03;22.83;;;11.43;;
31442;SDS011;18065;55.876;9.830;2022-12-18T08:51:33;22.63;;;11.18;;
31442;SDS011;18065;55.876;9.830;2022-12-18T08:54:05;17.55;;;11.45;;
31442;SDS011;18065;55.876;9.830;2022-12-18T08:56:34;16.75;;;10.88;;
31442;SDS011;18065;55.876;9.830;2022-12-18T08:59:03;21.92;;;11.50;;
31442;SDS011;18065;55.876;9.830;2022-12-18T09:01:32;20.02;;;11.68;;
31442;SDS011;18065;55.876;9.830;2022-12-18T09:04:01;20.75;;;11.63;;
31442;SDS011;18065;55.876;9.830;2022-12-18T09:06:30;24.33;;;10.85;;
31442;SDS011;18065;55.876;9.830;2022-12-18T09:08:59;19.75;;;11.18;;
31442;SDS011;18065;55.876;9.830;2022-12-18T09:14:14;19.25;;;11.20;;
31442;SDS011;18065;55.876;9.830;2022-12-18T09:16:43;19.48;;;11.25;;
31442;SDS011;18065;55.876;9.830;2022-12-18T09:19:12;20.25;;;11.02;;
31442;SDS011;18065;55.876;9.830;2022-12-18T09:21:41;16.48;;;10.70;;
31442;SDS011;18065;55.876;9.830;2022-12-18T09:24:11;21.35;;;11.15;;
31442;SDS011;18065;55.876;9.830;2022-12-18T09:26:41;20.42;;;10.65;;
31442;SDS011;18065;55.876;9.830;2022-12-18T09:29:13;17.58;;;9.70;;
31442;SDS011;18065;55.876;9.830;2022-12-18T09:31:41;18.42;;;10.98;;
31442;SDS011;18065;55.876;9.830;2022-12-18T09:34:10;21.70;;;11.25;;
31442;SDS011;18065;55.876;9.830;2022-12-18T09:36:39;23.50;;;11.73;;
31442;SDS011;18065;55.876;9.830;2022-12-18T09:39:08;23.33;;;12.40;;
31442;SDS011;18065;55.876;9.830;2022-12-18T09:41:44;20.30;;;11.43;;
31442;SDS011;18065;55.876;9.830;2022-12-18T09:44:22;22.38;;;11.73;;
31442;SDS011;18065;55.876;9.830;2022-12-18T09:46:54;19.98;;;10.45;;
31442;SDS011;18065;55.876;9.830;2022-12-18T09:49:35;22.65;;;12.00;;
31442;SDS011;18065;55.876;9.830;2022-12-18T09:52:09;18.10;;;10.27;;
31442;SDS011;18065;55.876;9.830;2022-12-18T09:54:43;21.92;;;11.73;;
31442;SDS011;18065;55.876;9.830;2022-12-18T09:57:15;25.42;;;11.57;;
31442;SDS011;18065;55.876;9.830;2022-12-18T10:02:21;21.20;;;10.32;;
31442;SDS011;18065;55.876;9.830;2022-12-18T10:05:00;18.17;;;10.20;;
31442;SDS011;18065;55.876;9.830;2022-12-18T10:07:39;19.77;;;10.30;;
31442;SDS011;18065;55.876;9.830;2022-12-18T10:10:18;23.33;;;10.25;;
31442;SDS011;18065;55.876;9.830;2022-12-18T10:12:58;20.38;;;10.25;;
31442;SDS011;18065;55.876;9.830;2022-12-18T10:15:38;20.88;;;10.18;;
31442;SDS011;18065;55.876;9.830;2022-12-18T10:18:16;18.23;;;10.30;;
31442;SDS011;18065;55.876;9.830;2022-12-18T10:20:54;21.73;;;10.60;;
31442;SDS011;18065;55.876;9.830;2022-12-18T10:23:29;17.75;;;10.00;;
31442;SDS011;18065;55.876;9.830;2022-12-18T10:26:06;20.02;;;10.77;;
31442;SDS011;18065;55.876;9.830;2022-12-18T10:28:36;19.70;;;9.88;;
31442;SDS011;18065;55.876;9.830;2022-12-18T10:31:10;19.90;;;10.43;;
31442;SDS011;18065;55.876;9.830;2022-12-18T10:33:43;20.25;;;9.68;;
31442;SDS011;18065;55.876;9.830;2022-12-18T10:36:12;19.77;;;9.43;;
31442;SDS011;18065;55.876;9.830;2022-12-18T10:38:41;15.77;;;9.80;;
31442;SDS011;18065;55.876;9.830;2022-12-18T10:41:22;22.65;;;10.75;;
31442;SDS011;18065;55.876;9.830;2022-12-18T10:44:10;17.67;;;9.75;;
31442;SDS011;18065;55.876;9.830;2022-12-18T10:46:43;19.30;;;9.98;;
31442;SDS011;18065;55.876;9.830;2022-12-18T10:49:19;16.38;;;8.90;;
31442;SDS011;18065;55.876;9.830;2022-12-18T10:51:51;17.48;;;9.48;;
31442;SDS011;18065;55.876;9.830;2022-12-18T10:54:32;16.25;;;10.05;;
31442;SDS011;18065;55.876;9.830;2022-12-18T10:57:13;17.77;;;9.45;;
31442;SDS011;18065;55.876;9.830;2022-12-18T10:59:50;21.90;;;10.35;;
31442;SDS011;18065;55.876;9.830;2022-12-18T11:02:33;20.27;;;9.68;;
31442;SDS011;18065;55.876;9.830;2022-12-18T11:05:10;17.90;;;9.27;;
31442;SDS011;18065;55.876;9.830;2022-12-18T11:07:53;16.73;;;9.80;;
31442;SDS011;18065;55.876;9.830;2022-12-18T11:10:23;12.75;;;8.57;;
31442;SDS011;18065;55.876;9.830;2022-12-18T11:12:56;17.05;;;9.15;;
31442;SDS011;18065;55.876;9.830;2022-12-18T11:15:39;17.38;;;9.02;;
31442;SDS011;18065;55.876;9.830;2022-12-18T11:18:19;15.20;;;8.48;;
31442;SDS011;18065;55.876;9.830;2022-12-18T11:20:51;14.63;;;8.90;;
31442;SDS011;18065;55.876;9.830;2022-12-18T11:23:22;17.63;;;9.77;;
31442;SDS011;18065;55.876;9.830;2022-12-18T11:25:52;14.30;;;8.75;;
31442;SDS011;18065;55.876;9.830;2022-12-18T11:28:37;15.40;;;9.07;;
31442;SDS011;18065;55.876;9.830;2022-12-18T11:31:15;17.23;;;8.60;;
31442;SDS011;18065;55.876;9.830;2022-12-18T11:33:54;15.50;;;9.23;;
31442;SDS011;18065;55.876;9.830;2022-12-18T11:36:29;17.60;;;9.27;;
31442;SDS011;18065;55.876;9.830;2022-12-18T11:39:02;16.00;;;9.40;;
31442;SDS011;18065;55.876;9.830;2022-12-18T11:41:39;17.30;;;9.25;;
31442;SDS011;18065;55.876;9.830;2022-12-18T11:44:26;17.77;;;8.70;;
31442;SDS011;18065;55.876;9.830;2022-12-18T11:47:00;15.68;;;8.25;;
31442;SDS011;18065;55.876;9.830;2022-12-18T11:49:38;17.25;;;8.77;;
31442;SDS011;18065;55.876;9.830;2022-12-18T11:52:09;13.63;;;8.23;;
31442;SDS011;18065;55.876;9.830;2022-12-18T11:54:50;15.75;;;8.60;;
31442;SDS011;18065;55.876;9.830;2022-12-18T11:57:25;16.80;;;9.43;;
31442;SDS011;18065;55.876;9.830;2022-12-18T12:00:02;15.15;;;9.00;;
31442;SDS011;18065;55.876;9.830;2022-12-18T12:02:52;14.65;;;8.73;;
31442;SDS011;18065;55.876;9.830;2022-12-18T12:05:41;12.02;;;7.78;;
31442;SDS011;18065;55.876;9.830;2022-12-18T12:08:19;13.90;;;7.67;;
31442;SDS011;18065;55.876;9.830;2022-12-18T12:10:58;12.00;;;7.82;;
31442;SDS011;18065;55.876;9.830;2022-12-18T12:13:36;14.68;;;8.38;;
31442;SDS011;18065;55.876;9.830;2022-12-18T12:16:14;11.68;;;8.05;;
31442;SDS011;18065;55.876;9.830;2022-12-18T12:18:49;13.85;;;8.23;;
31442;SDS011;18065;55.876;9.830;2022-12-18T12:21:32;13.00;;;8.57;;
31442;SDS011;18065;55.876;9.830;2022-12-18T12:24:14;14.55;;;7.88;;
31442;SDS011;18065;55.876;9.830;2022-12-18T12:26:55;16.67;;;8.15;;
31442;SDS011;18065;55.876;9.830;2022-12-18T12:29:36;12.38;;;7.50;;
31442;SDS011;18065;55.876;9.830;2022-12-18T12:32:22;12.32;;;7.38;;
31442;SDS011;18065;55.876;9.830;2022-12-18T12:35:05;13.27;;;8.27;;
31442;SDS011;18065;55.876;9.830;2022-12-18T12:37:48;12.23;;;8.07;;
31442;SDS011;18065;55.876;9.830;2022-12-18T12:40:29;13.00;;;7.72;;
31442;SDS011;18065;55.876;9.830;2022-12-18T12:43:02;12.05;;;7.85;;
31442;SDS011;18065;55.876;9.830;2022-12-18T12:45:40;12.77;;;7.75;;
31442;SDS011;18065;55.876;9.830;2022-12-18T12:48:15;11.95;;;7.07;;
31442;SDS011;18065;55.876;9.830;2022-12-18T12:50:47;11.23;;;7.03;;
31442;SDS011;18065;55.876;9.830;2022-12-18T12:53:23;12.45;;;6.93;;
31442;SDS011;18065;55.876;9.830;2022-12-18T12:55:57;11.82;;;7.40;;
31442;SDS011;18065;55.876;9.830;2022-12-18T12:58:29;11.15;;;6.80;;
31442;SDS011;18065;55.876;9.830;2022-12-18T13:01:08;9.45;;;6.70;;
31442;SDS011;18065;55.876;9.830;2022-12-18T13:03:45;12.07;;;7.80;;
31442;SDS011;18065;55.876;9.830;2022-12-18T13:06:24;12.18;;;7.25;;
31442;SDS011;18065;55.876;9.830;2022-12-18T13:09:02;13.73;;;7.07;;
31442;SDS011;18065;55.876;9.830;2022-12-18T13:11:32;11.07;;;7.15;;
31442;SDS011;18065;55.876;9.830;2022-12-18T13:14:20;11.40;;;7.20;;
31442;SDS011;18065;55.876;9.830;2022-12-18T13:16:50;13.82;;;7.13;;
31442;SDS011;18065;55.876;9.830;2022-12-18T13:19:21;11.63;;;7.20;;
31442;SDS011;18065;55.876;9.830;2022-12-18T13:21:54;10.50;;;7.03;;
31442;SDS011;18065;55.876;9.830;2022-12-18T13:24:27;10.88;;;6.63;;
31442;SDS011;18065;55.876;9.830;2022-12-18T13:26:59;13.63;;;7.20;;
31442;SDS011;18065;55.876;9.830;2022-12-18T13:29:41;9.95;;;7.13;;
31442;SDS011;18065;55.876;9.830;2022-12-18T13:32:19;10.20;;;7.32;;
31442;SDS011;18065;55.876;9.830;2022-12-18T13:37:57;13.23;;;6.78;;
31442;SDS011;18065;55.876;9.830;2022-12-18T13:43:28;10.93;;;6.60;;
31442;SDS011;18065;55.876;9.830;2022-12-18T13:48:35;10.23;;;6.55;;
31442;SDS011;18065;55.876;9.830;2022-12-18T13:51:06;11.02;;;7.10;;
31442;SDS011;18065;55.876;9.830;2022-12-18T13:53:38;10.25;;;6.75;;
31442;SDS011;18065;55.876;9.830;2022-12-18T13:56:21;15.38;;;6.38;;
31442;SDS011;18065;55.876;9.830;2022-12-18T13:59:10;9.38;;;6.60;;
31442;SDS011;18065;55.876;9.830;2022-12-18T14:01:51;10.90;;;6.35;;
31442;SDS011;18065;55.876;9.830;2022-12-18T14:04:24;13.23;;;6.25;;
31442;SDS011;18065;55.876;9.830;2022-12-18T14:06:56;11.23;;;6.68;;
31442;SDS011;18065;55.876;9.830;2022-12-18T14:09:30;12.43;;;6.88;;
31442;SDS011;18065;55.876;9.830;2022-12-18T14:12:06;13.75;;;6.45;;
31442;SDS011;18065;55.876;9.830;2022-12-18T14:14:56;8.50;;;6.35;;
31442;SDS011;18065;55.876;9.830;2022-12-18T14:17:25;13.43;;;6.20;;
31442;SDS011;18065;55.876;9.830;2022-12-18T14:19:54;9.88;;;6.32;;
31442;SDS011;18065;55.876;9.830;2022-12-18T14:22:25;12.45;;;6.60;;
31442;SDS011;18065;55.876;9.830;2022-12-18T14:25:06;9.95;;;6.18;;
31442;SDS011;18065;55.876;9.830;2022-12-18T14:27:46;11.55;;;6.82;;
31442;SDS011;18065;55.876;9.830;2022-12-18T14:33:05;11.45;;;6.13;;
31442;SDS011;18065;55.876;9.830;2022-12-18T14:35:37;11.60;;;6.38;;
31442;SDS011;18065;55.876;9.830;2022-12-18T14:38:15;11.20;;;6.70;;
31442;SDS011;18065;55.876;9.830;2022-12-18T14:40:51;9.38;;;6.00;;
31442;SDS011;18065;55.876;9.830;2022-12-18T14:43:24;10.82;;;6.55;;
31442;SDS011;18065;55.876;9.830;2022-12-18T14:45:53;9.20;;;6.30;;
31442;SDS011;18065;55.876;9.830;2022-12-18T14:48:24;10.82;;;6.55;;
31442;SDS011;18065;55.876;9.830;2022-12-18T14:51:03;9.82;;;6.22;;
31442;SDS011;18065;55.876;9.830;2022-12-18T14:53:35;8.73;;;6.65;;
31442;SDS011;18065;55.876;9.830;2022-12-18T14:56:12;7.53;;;5.80;;
31442;SDS011;18065;55.876;9.830;2022-12-18T14:58:50;10.23;;;6.10;;
31442;SDS011;18065;55.876;9.830;2022-12-18T15:01:23;8.60;;;6.22;;
31442;SDS011;18065;55.876;9.830;2022-12-18T15:03:55;10.70;;;6.00;;
31442;SDS011;18065;55.876;9.830;2022-12-18T15:06:26;12.52;;;6.15;;
31442;SDS011;18065;55.876;9.830;2022-12-18T15:08:58;9.60;;;6.38;;
31442;SDS011;18065;55.876;9.830;2022-12-18T15:11:29;9.70;;;5.75;;
31442;SDS011;18065;55.876;9.830;2022-12-18T15:17:14;9.65;;;5.93;;
31442;SDS011;18065;55.876;9.830;2022-12-18T15:19:45;12.15;;;5.95;;
31442;SDS011;18065;55.876;9.830;2022-12-18T15:22:17;9.50;;;6.38;;
31442;SDS011;18065;55.876;9.830;2022-12-18T15:24:49;8.63;;;5.47;;
31442;SDS011;18065;55.876;9.830;2022-12-18T15:27:28;9.98;;;5.60;;
31442;SDS011;18065;55.876;9.830;2022-12-18T15:32:49;8.05;;;5.28;;